createdAt,value
2018-05-01T00:00:25.550Z,3.00
2018-05-01T00:01:25.530Z,2.90
2018-05-01T00:02:25.514Z,2.70
2018-05-01T00:05:10.211Z,2.10
2018-05-01T00:06:10.194Z,2.30
2018-05-01T00:07:10.170Z,3.60
2018-05-01T00:08:10.150Z,3.10
2018-05-01T00:09:10.134Z,3.60
2018-05-01T00:10:10.111Z,4.30
2018-05-01T00:11:10.097Z,3.00
2018-05-01T00:12:10.083Z,3.50
2018-05-01T00:13:10.052Z,3.30
2018-05-01T00:14:10.037Z,3.10
2018-05-01T00:15:10.014Z,3.30
2018-05-01T00:16:10.026Z,3.00
2018-05-01T00:17:09.980Z,2.70
2018-05-01T00:18:09.961Z,3.00
2018-05-01T00:19:09.936Z,3.10
2018-05-01T00:20:09.927Z,3.00
2018-05-01T00:21:09.955Z,2.70
2018-05-01T00:22:09.883Z,3.00
2018-05-01T00:23:09.910Z,3.00
2018-05-01T00:24:09.842Z,3.30
2018-05-01T00:25:09.888Z,4.00
2018-05-01T00:26:09.802Z,4.60
2018-05-01T00:27:09.789Z,3.50
2018-05-01T00:28:09.771Z,3.80
2018-05-01T00:29:09.815Z,3.70
2018-05-01T00:30:09.729Z,3.40
2018-05-01T00:31:09.866Z,3.40
2018-05-01T00:32:09.690Z,3.10
2018-05-01T00:33:09.773Z,4.30
2018-05-01T00:34:09.661Z,3.80
2018-05-01T00:35:09.729Z,3.50
2018-05-01T00:36:09.670Z,3.30
2018-05-01T00:37:09.637Z,3.30
2018-05-01T00:38:09.572Z,4.50
2018-05-01T00:39:09.623Z,3.40
2018-05-01T00:40:09.529Z,3.40
2018-05-01T00:41:09.661Z,3.20
2018-05-01T00:42:09.491Z,3.50
2018-05-01T00:43:09.586Z,2.80
2018-05-01T00:44:09.456Z,3.20
2018-05-01T00:45:09.538Z,3.40
2018-05-01T00:46:09.417Z,3.30
2018-05-01T00:47:09.449Z,2.90
2018-05-01T00:48:09.383Z,3.10
2018-05-01T00:49:09.417Z,3.30
2018-05-01T00:50:09.342Z,2.70
2018-05-01T00:51:09.330Z,2.60
2018-05-01T00:52:09.297Z,2.90
2018-05-01T00:53:09.333Z,2.70
2018-05-01T00:54:09.260Z,2.60
2018-05-01T00:55:09.243Z,2.40
2018-05-01T00:56:09.221Z,2.30
2018-05-01T00:57:09.198Z,2.30
2018-05-01T00:58:09.180Z,2.40
2018-05-01T00:59:09.163Z,2.30
2018-05-01T01:00:09.139Z,2.80
2018-05-01T01:01:09.120Z,2.10
2018-05-01T01:02:09.100Z,3.30
2018-05-01T01:03:09.080Z,2.30
2018-05-01T01:04:09.071Z,2.90
2018-05-01T01:05:09.043Z,2.60
2018-05-01T01:06:09.024Z,2.60
2018-05-01T01:07:09.002Z,2.70
2018-05-01T01:08:08.990Z,3.40
2018-05-01T01:09:08.963Z,3.20
2018-05-01T01:10:08.944Z,3.00
2018-05-01T01:11:08.923Z,3.00
2018-05-01T01:12:08.904Z,2.90
2018-05-01T01:13:08.892Z,2.20
2018-05-01T01:14:08.874Z,2.20
2018-05-01T01:15:08.847Z,2.60
2018-05-01T01:16:08.826Z,2.40
2018-05-01T01:17:08.814Z,2.60
2018-05-01T01:18:08.788Z,2.70
2018-05-01T01:19:08.769Z,2.70
2018-05-01T01:20:08.750Z,2.90
2018-05-01T01:21:08.731Z,2.60
2018-05-01T01:22:08.708Z,2.50
2018-05-01T01:23:08.692Z,2.50
2018-05-01T01:24:08.667Z,2.60
2018-05-01T01:25:08.650Z,2.60
2018-05-01T01:26:08.631Z,2.40
2018-05-01T01:27:08.614Z,2.40
2018-05-01T01:28:08.592Z,2.60
2018-05-01T01:29:08.571Z,2.40
2018-05-01T01:30:08.560Z,2.40
2018-05-01T01:31:08.531Z,3.10
2018-05-01T01:32:08.510Z,2.80
2018-05-01T01:33:08.487Z,3.20
2018-05-01T01:34:08.470Z,2.80
2018-05-01T01:35:08.451Z,2.90
2018-05-01T01:36:08.430Z,3.00
2018-05-01T01:37:08.410Z,2.80
2018-05-01T01:38:08.390Z,2.60
2018-05-01T01:39:08.370Z,3.20
2018-05-01T01:40:08.349Z,2.80
2018-05-01T01:41:08.329Z,2.50
2018-05-01T01:42:08.311Z,2.70
2018-05-01T01:43:08.305Z,2.50
2018-05-01T01:44:08.277Z,3.00
2018-05-01T01:45:08.311Z,2.70
2018-05-01T01:46:08.231Z,2.80
2018-05-01T01:47:08.220Z,2.60
2018-05-01T01:48:08.196Z,2.50
2018-05-01T01:49:08.309Z,2.80
2018-05-01T01:50:08.157Z,3.00
2018-05-01T01:51:08.143Z,3.00
2018-05-01T01:52:08.115Z,2.60
2018-05-01T01:53:08.097Z,3.00
2018-05-01T01:54:08.077Z,2.90
2018-05-01T01:55:08.069Z,3.20
2018-05-01T01:56:08.033Z,2.80
2018-05-01T01:57:08.015Z,2.60
2018-05-01T01:58:07.994Z,2.60
2018-05-01T01:59:07.986Z,2.70
2018-05-01T02:00:07.966Z,3.10
2018-05-01T02:01:07.940Z,3.40
2018-05-01T02:02:07.920Z,2.70
2018-05-01T02:03:07.928Z,2.80
2018-05-01T02:04:07.879Z,3.00
2018-05-01T02:05:07.861Z,3.00
2018-05-01T02:06:07.838Z,2.90
2018-05-01T02:07:07.832Z,2.90
2018-05-01T02:08:07.800Z,3.00
2018-05-01T02:09:07.881Z,2.80
2018-05-01T02:10:07.762Z,2.20
2018-05-01T02:11:07.843Z,2.60
2018-05-01T02:12:07.723Z,3.30
2018-05-01T02:13:07.760Z,2.40
2018-05-01T02:14:07.683Z,2.70
2018-05-01T02:15:07.675Z,2.90
2018-05-01T02:16:07.643Z,3.00
2018-05-01T02:17:07.620Z,2.40
2018-05-01T02:18:07.600Z,2.60
2018-05-01T02:19:07.583Z,2.50
2018-05-01T02:20:07.559Z,3.00
2018-05-01T02:21:07.550Z,2.80
2018-05-01T02:22:07.528Z,3.00
2018-05-01T02:23:07.502Z,2.60
2018-05-01T02:24:07.480Z,4.30
2018-05-01T02:25:07.466Z,2.60
2018-05-01T02:26:07.440Z,2.60
2018-05-01T02:27:07.422Z,2.60
2018-05-01T02:28:07.412Z,2.70
2018-05-01T02:29:07.383Z,2.80
2018-05-01T02:30:07.378Z,2.90
2018-05-01T02:31:07.339Z,3.50
2018-05-01T02:32:07.321Z,2.90
2018-05-01T02:33:07.298Z,3.30
2018-05-01T02:34:07.280Z,2.80
2018-05-01T02:35:07.264Z,3.00
2018-05-01T02:36:07.253Z,2.80
2018-05-01T02:37:07.217Z,4.30
2018-05-01T02:38:07.206Z,3.10
2018-05-01T02:39:07.180Z,2.70
2018-05-01T02:40:07.161Z,3.40
2018-05-01T02:41:07.199Z,2.80
2018-05-01T02:42:07.121Z,2.60
2018-05-01T02:43:07.103Z,2.70
2018-05-01T02:44:07.083Z,2.70
2018-05-01T02:45:07.064Z,2.70
2018-05-01T02:46:07.054Z,3.10
2018-05-01T02:47:07.020Z,3.20
2018-05-01T02:48:07.002Z,3.90
2018-05-01T02:49:06.998Z,2.70
2018-05-01T02:50:06.963Z,2.90
2018-05-01T02:51:06.942Z,3.30
2018-05-01T02:52:06.927Z,2.80
2018-05-01T02:53:06.899Z,2.70
2018-05-01T02:54:06.884Z,2.70
2018-05-01T02:55:06.861Z,3.00
2018-05-01T02:56:06.841Z,3.30
2018-05-01T02:57:06.827Z,3.20
2018-05-01T02:58:06.801Z,3.10
2018-05-01T02:59:06.780Z,3.90
2018-05-01T03:00:06.762Z,3.80
2018-05-01T03:01:06.741Z,2.80
2018-05-01T03:02:06.722Z,3.10
2018-05-01T03:03:06.702Z,2.80
2018-05-01T03:04:06.684Z,3.20
2018-05-01T03:05:06.663Z,3.30
2018-05-01T03:06:06.655Z,3.10
2018-05-01T03:07:06.632Z,3.20
2018-05-01T03:08:06.602Z,3.30
2018-05-01T03:09:06.579Z,3.40
2018-05-01T03:10:06.563Z,3.10
2018-05-01T03:11:06.566Z,3.10
2018-05-01T03:12:06.529Z,3.30
2018-05-01T03:13:06.501Z,3.20
2018-05-01T03:14:06.483Z,3.50
2018-05-01T03:15:06.462Z,3.40
2018-05-01T03:16:06.443Z,3.10
2018-05-01T03:17:06.424Z,3.30
2018-05-01T03:18:06.403Z,3.10
2018-05-01T03:19:06.382Z,3.30
2018-05-01T03:20:06.377Z,3.40
2018-05-01T03:21:06.345Z,3.20
2018-05-01T03:22:06.321Z,3.40
2018-05-01T03:23:06.302Z,3.40
2018-05-01T03:24:06.284Z,3.20
2018-05-01T03:25:06.262Z,3.60
2018-05-01T03:26:06.242Z,3.50
2018-05-01T03:27:06.222Z,5.00
2018-05-01T03:28:06.201Z,4.20
2018-05-01T03:29:06.185Z,4.10
2018-05-01T03:30:06.170Z,3.40
2018-05-01T03:31:06.147Z,3.50
2018-05-01T03:32:06.121Z,3.80
2018-05-01T03:33:06.104Z,3.40
2018-05-01T03:34:06.082Z,3.80
2018-05-01T03:35:06.064Z,3.70
2018-05-01T03:36:06.043Z,4.10
2018-05-01T03:37:06.023Z,3.90
2018-05-01T03:38:06.002Z,4.50
2018-05-01T03:39:06.018Z,4.00
2018-05-01T03:40:05.962Z,4.10
2018-05-01T03:41:05.941Z,3.80
2018-05-01T03:42:05.921Z,3.50
2018-05-01T03:43:05.909Z,3.80
2018-05-01T03:44:05.887Z,3.90
2018-05-01T03:45:05.866Z,4.40
2018-05-01T03:46:05.841Z,3.90
2018-05-01T03:47:05.823Z,4.50
2018-05-01T03:48:05.814Z,4.30
2018-05-01T03:49:05.780Z,3.70
2018-05-01T03:50:05.770Z,3.50
2018-05-01T03:51:05.744Z,4.20
2018-05-01T03:52:05.722Z,5.50
2018-05-01T03:53:05.702Z,4.30
2018-05-01T03:54:05.680Z,4.40
2018-05-01T03:55:05.662Z,3.90
2018-05-01T03:56:05.723Z,3.90
2018-05-01T03:57:05.622Z,4.20
2018-05-01T03:58:05.600Z,3.90
2018-05-01T03:59:05.579Z,4.00
2018-05-01T04:00:05.560Z,4.80
2018-05-01T04:01:05.538Z,4.60
2018-05-01T04:02:05.521Z,4.40
2018-05-01T04:03:05.499Z,4.40
2018-05-01T04:04:05.485Z,3.90
2018-05-01T04:05:05.459Z,4.20
2018-05-01T04:06:05.442Z,3.70
2018-05-01T04:07:05.421Z,4.70
2018-05-01T04:08:05.401Z,4.20
2018-05-01T04:09:05.383Z,6.70
2018-05-01T04:10:05.367Z,4.30
2018-05-01T04:11:05.342Z,4.80
2018-05-01T04:12:05.323Z,4.80
2018-05-01T04:13:05.301Z,4.60
2018-05-01T04:14:05.289Z,4.40
2018-05-01T04:15:05.262Z,4.70
2018-05-01T04:16:05.245Z,4.30
2018-05-01T04:17:05.223Z,4.50
2018-05-01T04:18:05.202Z,4.30
2018-05-01T04:19:05.186Z,4.40
2018-05-01T04:20:05.163Z,4.30
2018-05-01T04:21:05.143Z,4.90
2018-05-01T04:22:05.121Z,4.70
2018-05-01T04:23:05.100Z,4.60
2018-05-01T04:24:05.081Z,5.20
2018-05-01T04:25:05.062Z,5.10
2018-05-01T04:26:05.041Z,5.10
2018-05-01T04:27:05.019Z,4.20
2018-05-01T04:28:05.002Z,4.80
2018-05-01T04:29:04.983Z,4.80
2018-05-01T04:30:04.959Z,4.80
2018-05-01T04:31:04.941Z,5.40
2018-05-01T04:32:04.922Z,5.20
2018-05-01T04:33:04.901Z,4.80
2018-05-01T04:34:04.892Z,5.20
2018-05-01T04:35:04.870Z,4.80
2018-05-01T04:36:04.838Z,5.30
2018-05-01T04:37:04.823Z,6.10
2018-05-01T04:38:04.798Z,5.60
2018-05-01T04:39:04.790Z,5.40
2018-05-01T04:40:04.760Z,5.80
2018-05-01T04:41:04.738Z,4.80
2018-05-01T04:42:04.718Z,5.90
2018-05-01T04:43:04.701Z,5.70
2018-05-01T04:44:04.684Z,5.90
2018-05-01T04:45:04.661Z,5.20
2018-05-01T04:46:04.640Z,5.90
2018-05-01T04:47:04.626Z,6.10
2018-05-01T04:48:04.603Z,5.80
2018-05-01T04:49:04.581Z,5.70
2018-05-01T04:50:04.555Z,5.00
2018-05-01T04:51:04.536Z,6.20
2018-05-01T04:52:04.516Z,5.30
2018-05-01T04:53:04.496Z,5.60
2018-05-01T04:54:04.479Z,5.40
2018-05-01T04:55:04.460Z,5.90
2018-05-01T04:56:04.438Z,5.50
2018-05-01T04:57:04.416Z,5.80
2018-05-01T04:58:04.404Z,5.60
2018-05-01T04:59:04.376Z,6.00
2018-05-01T05:00:04.362Z,5.10
2018-05-01T05:01:04.341Z,5.30
2018-05-01T05:02:04.320Z,6.50
2018-05-01T05:03:04.306Z,6.50
2018-05-01T05:04:04.276Z,5.80
2018-05-01T05:05:04.259Z,5.50
2018-05-01T05:06:04.245Z,5.80
2018-05-01T05:07:04.214Z,5.50
2018-05-01T05:08:04.216Z,5.10
2018-05-01T05:09:04.180Z,5.50
2018-05-01T05:10:04.159Z,5.10
2018-05-01T05:11:04.137Z,5.50
2018-05-01T05:12:04.126Z,4.50
2018-05-01T05:13:04.093Z,5.00
2018-05-01T05:14:04.079Z,4.50
2018-05-01T05:15:04.058Z,5.30
2018-05-01T05:16:04.040Z,4.80
2018-05-01T05:17:04.019Z,5.00
2018-05-01T05:18:03.996Z,5.10
2018-05-01T05:19:03.999Z,4.90
2018-05-01T05:20:03.960Z,4.30
2018-05-01T05:21:03.936Z,5.00
2018-05-01T05:22:03.924Z,4.70
2018-05-01T05:23:03.900Z,4.90
2018-05-01T05:24:03.873Z,4.80
2018-05-01T05:25:03.861Z,6.70
2018-05-01T05:26:03.831Z,5.50
2018-05-01T05:27:03.819Z,4.70
2018-05-01T05:28:03.801Z,5.30
2018-05-01T05:29:03.772Z,4.90
2018-05-01T05:30:03.758Z,7.30
2018-05-01T05:31:03.736Z,5.80
2018-05-01T05:32:03.714Z,5.50
2018-05-01T05:33:03.700Z,5.20
2018-05-01T05:34:03.677Z,6.30
2018-05-01T05:35:03.663Z,6.60
2018-05-01T05:36:03.643Z,6.40
2018-05-01T05:37:03.621Z,5.70
2018-05-01T05:38:03.595Z,6.50
2018-05-01T05:39:03.581Z,6.00
2018-05-01T05:40:03.563Z,6.30
2018-05-01T05:41:03.539Z,8.50
2018-05-01T05:42:03.511Z,6.70
2018-05-01T05:43:03.494Z,6.60
2018-05-01T05:44:03.473Z,6.70
2018-05-01T05:45:03.451Z,7.60
2018-05-01T05:46:03.440Z,7.20
2018-05-01T05:47:03.424Z,7.90
2018-05-01T05:48:03.393Z,7.50
2018-05-01T05:49:03.385Z,8.20
2018-05-01T05:50:03.353Z,8.80
2018-05-01T05:51:03.330Z,8.80
2018-05-01T05:52:03.323Z,7.70
2018-05-01T05:53:03.289Z,7.70
2018-05-01T05:54:03.273Z,8.00
2018-05-01T05:55:03.251Z,7.80
2018-05-01T05:56:03.236Z,8.80
2018-05-01T05:57:03.210Z,8.30
2018-05-01T05:58:03.189Z,9.20
2018-05-01T05:59:03.170Z,9.90
2018-05-01T06:00:03.157Z,9.20
2018-05-01T06:01:03.205Z,9.30
2018-05-01T06:02:03.109Z,9.40
2018-05-01T06:03:03.093Z,9.00
2018-05-01T06:04:03.073Z,8.40
2018-05-01T06:05:03.049Z,9.10
2018-05-01T06:06:03.030Z,9.90
2018-05-01T06:07:03.010Z,9.10
2018-05-01T06:08:02.989Z,8.80
2018-05-01T06:09:02.968Z,9.80
2018-05-01T06:10:02.948Z,10.00
2018-05-01T06:11:02.931Z,9.60
2018-05-01T06:12:02.912Z,9.90
2018-05-01T06:13:02.891Z,10.50
2018-05-01T06:14:02.871Z,10.80
2018-05-01T06:15:02.853Z,10.10
2018-05-01T06:16:02.831Z,10.90
2018-05-01T06:17:02.812Z,11.90
2018-05-01T06:18:02.793Z,10.80
2018-05-01T06:19:02.774Z,11.50
2018-05-01T06:20:02.785Z,11.20
2018-05-01T06:21:02.732Z,12.80
2018-05-01T06:22:02.784Z,11.30
2018-05-01T06:23:02.692Z,13.20
2018-05-01T06:24:02.671Z,11.30
2018-05-01T06:25:02.652Z,11.80
2018-05-01T06:26:02.632Z,12.50
2018-05-01T06:27:02.614Z,11.00
2018-05-01T06:28:02.592Z,11.30
2018-05-01T06:29:02.571Z,11.60
2018-05-01T06:30:02.550Z,12.10
2018-05-01T06:31:02.683Z,11.10
2018-05-01T06:32:02.509Z,12.40
2018-05-01T06:33:02.490Z,12.70
2018-05-01T06:34:02.470Z,11.20
2018-05-01T06:35:02.455Z,12.80
2018-05-01T06:36:02.431Z,12.90
2018-05-01T06:37:02.410Z,13.20
2018-05-01T06:38:02.411Z,13.30
2018-05-01T06:39:02.376Z,13.70
2018-05-01T06:40:02.380Z,14.80
2018-05-01T06:41:02.331Z,13.40
2018-05-01T06:42:02.312Z,11.10
2018-05-01T06:43:02.293Z,14.00
2018-05-01T06:44:02.292Z,11.60
2018-05-01T06:45:02.261Z,12.00
2018-05-01T06:46:02.232Z,13.90
2018-05-01T06:47:02.214Z,13.30
2018-05-01T06:48:02.188Z,12.50
2018-05-01T06:49:02.171Z,13.70
2018-05-01T06:50:02.161Z,12.30
2018-05-01T06:51:02.129Z,9.70
2018-05-01T06:52:02.108Z,13.90
2018-05-01T06:53:02.089Z,13.20
2018-05-01T06:54:02.065Z,13.40
2018-05-01T06:55:02.055Z,14.90
2018-05-01T06:56:02.043Z,14.80
2018-05-01T06:57:02.007Z,13.50
2018-05-01T06:58:01.989Z,13.70
2018-05-01T06:59:01.969Z,12.40
2018-05-01T07:00:01.956Z,13.90
2018-05-01T07:01:01.926Z,15.00
2018-05-01T07:02:01.906Z,13.80
2018-05-01T07:03:01.901Z,13.90
2018-05-01T07:04:01.873Z,13.10
2018-05-01T07:05:01.852Z,13.60
2018-05-01T07:06:01.829Z,14.30
2018-05-01T07:07:01.812Z,13.20
2018-05-01T07:08:01.793Z,14.30
2018-05-01T07:09:01.771Z,14.10
2018-05-01T07:10:01.760Z,12.50
2018-05-01T07:11:01.735Z,13.10
2018-05-01T07:12:01.718Z,12.90
2018-05-01T07:13:01.696Z,15.80
2018-05-01T07:14:01.725Z,13.20
2018-05-01T07:15:01.682Z,12.50
2018-05-01T07:16:01.629Z,11.10
2018-05-01T07:17:01.613Z,10.50
2018-05-01T07:18:01.591Z,14.60
2018-05-01T07:19:01.580Z,11.50
2018-05-01T07:20:01.554Z,11.60
2018-05-01T07:21:01.531Z,11.40
2018-05-01T07:22:01.520Z,14.60
2018-05-01T07:23:01.497Z,11.90
2018-05-01T07:24:01.588Z,11.00
2018-05-01T07:25:01.462Z,10.80
2018-05-01T07:26:01.433Z,12.00
2018-05-01T07:27:01.431Z,12.30
2018-05-01T07:28:01.394Z,10.90
2018-05-01T07:29:01.383Z,12.50
2018-05-01T07:30:01.359Z,10.50
2018-05-01T07:31:01.337Z,11.10
2018-05-01T07:32:01.314Z,11.70
2018-05-01T07:33:01.303Z,11.50
2018-05-01T07:34:01.276Z,14.00
2018-05-01T07:35:01.256Z,12.30
2018-05-01T07:36:01.234Z,11.90
2018-05-01T07:37:01.220Z,14.80
2018-05-01T07:38:01.215Z,12.90
2018-05-01T07:39:01.192Z,11.50
2018-05-01T07:40:01.163Z,13.40
2018-05-01T07:41:01.138Z,11.70
2018-05-01T07:42:01.114Z,14.90
2018-05-01T07:43:01.104Z,12.40
2018-05-01T07:44:01.078Z,11.60
2018-05-01T07:45:01.054Z,13.30
2018-05-01T07:46:01.047Z,13.90
2018-05-01T07:47:01.022Z,15.10
2018-05-01T07:48:01.014Z,13.00
2018-05-01T07:49:01.000Z,14.10
2018-05-01T07:50:00.962Z,13.20
2018-05-01T07:51:00.951Z,14.70
2018-05-01T07:52:00.919Z,15.60
2018-05-01T07:53:00.895Z,12.60
2018-05-01T07:54:00.883Z,15.60
2018-05-01T07:55:00.860Z,13.80
2018-05-01T07:56:00.840Z,15.10
2018-05-01T07:57:00.823Z,16.30
2018-05-01T07:58:00.802Z,11.00
2018-05-01T07:59:00.779Z,13.20
2018-05-01T08:00:00.757Z,12.10
2018-05-01T08:01:00.738Z,15.20
2018-05-01T08:02:00.724Z,14.90
2018-05-01T08:03:00.700Z,12.20
2018-05-01T08:04:00.691Z,13.40
2018-05-01T08:05:00.656Z,14.60
2018-05-01T08:06:00.643Z,15.40
2018-05-01T08:07:00.730Z,13.50
2018-05-01T08:08:00.605Z,13.50
2018-05-01T08:09:00.579Z,14.80
2018-05-01T08:10:00.573Z,13.00
2018-05-01T08:11:00.543Z,12.10
2018-05-01T08:12:00.578Z,14.00
2018-05-01T08:13:00.513Z,12.30
2018-05-01T08:14:00.487Z,11.50
2018-05-01T08:15:00.469Z,12.40
2018-05-01T08:16:00.453Z,14.00
2018-05-01T08:17:00.424Z,14.10
2018-05-01T08:18:00.414Z,14.40
2018-05-01T08:19:00.403Z,11.60
2018-05-01T08:20:00.381Z,14.50
2018-05-01T08:21:00.346Z,13.10
2018-05-01T08:22:00.328Z,16.00
2018-05-01T08:23:00.315Z,13.50
2018-05-01T08:24:00.292Z,16.00
2018-05-01T08:25:00.277Z,11.40
2018-05-01T08:26:00.252Z,12.60
2018-05-01T08:27:00.241Z,12.80
2018-05-01T08:28:00.218Z,12.30
2018-05-01T08:29:00.199Z,15.20
2018-05-01T08:30:00.176Z,10.80
2018-05-01T08:31:00.149Z,11.50
2018-05-01T08:32:00.132Z,11.00
2018-05-01T08:33:00.123Z,12.10
2018-05-01T08:34:00.098Z,10.80
2018-05-01T08:35:00.083Z,10.70
2018-05-01T08:36:00.061Z,14.50
2018-05-01T08:37:00.042Z,10.60
2018-05-01T08:38:00.069Z,10.50
2018-05-01T08:39:00.005Z,11.40
2018-05-01T08:39:59.982Z,13.20
2018-05-01T08:40:59.960Z,12.80
2018-05-01T08:41:59.944Z,11.00
2018-05-01T08:42:59.919Z,12.20
2018-05-01T08:43:59.955Z,11.00
2018-05-01T08:44:59.882Z,12.30
2018-05-01T08:45:59.862Z,11.20
2018-05-01T08:46:59.842Z,13.60
2018-05-01T08:47:59.824Z,14.20
2018-05-01T08:48:59.802Z,15.80
2018-05-01T08:49:59.791Z,16.40
2018-05-01T08:50:59.771Z,12.70
2018-05-01T08:51:59.749Z,11.70
2018-05-01T08:52:59.732Z,15.10
2018-05-01T08:53:59.789Z,12.20
2018-05-01T08:54:59.689Z,15.10
2018-05-01T08:55:59.673Z,17.00
2018-05-01T08:56:59.650Z,14.40
2018-05-01T08:57:59.638Z,12.70
2018-05-01T08:58:59.618Z,13.10
2018-05-01T08:59:59.596Z,10.60
2018-05-01T09:00:59.580Z,12.10
2018-05-01T09:01:59.561Z,9.80
2018-05-01T09:02:59.540Z,9.90
2018-05-01T09:03:59.532Z,11.30
2018-05-01T09:04:59.511Z,10.50
2018-05-01T09:05:59.486Z,10.70
2018-05-01T09:06:59.478Z,10.10
2018-05-01T09:07:59.462Z,9.00
2018-05-01T09:08:59.448Z,10.90
2018-05-01T09:09:59.416Z,11.60
2018-05-01T09:10:59.400Z,11.50
2018-05-01T09:11:59.385Z,10.50
2018-05-01T09:12:59.369Z,10.90
2018-05-01T09:13:59.353Z,11.30
2018-05-01T09:14:59.336Z,10.70
2018-05-01T09:15:59.322Z,10.10
2018-05-01T09:16:59.385Z,10.70
2018-05-01T09:17:59.376Z,10.40
2018-05-01T09:18:59.258Z,10.60
2018-05-01T09:19:59.241Z,10.90
2018-05-01T09:20:59.226Z,10.90
2018-05-01T09:21:59.210Z,11.00
2018-05-01T09:22:59.190Z,11.40
2018-05-01T09:23:59.180Z,9.70
2018-05-01T09:24:59.149Z,12.60
2018-05-01T09:25:59.146Z,11.70
2018-05-01T09:26:59.131Z,13.20
2018-05-01T09:27:59.105Z,13.40
2018-05-01T09:28:59.088Z,12.10
2018-05-01T09:29:59.064Z,12.60
2018-05-01T09:30:59.045Z,10.40
2018-05-01T09:31:59.027Z,11.20
2018-05-01T09:32:59.007Z,10.80
2018-05-01T09:33:59.010Z,12.50
2018-05-01T09:34:58.970Z,11.30
2018-05-01T09:35:58.961Z,8.70
2018-05-01T09:36:58.935Z,10.60
2018-05-01T09:37:58.914Z,10.90
2018-05-01T09:38:58.896Z,12.80
2018-05-01T09:39:58.880Z,17.00
2018-05-01T09:40:58.870Z,11.50
2018-05-01T09:41:58.903Z,7.50
2018-05-01T09:42:58.829Z,12.90
2018-05-01T09:43:58.820Z,9.50
2018-05-01T09:44:58.789Z,10.70
2018-05-01T09:45:58.771Z,12.70
2018-05-01T09:46:58.761Z,12.70
2018-05-01T09:47:58.749Z,10.30
2018-05-01T09:48:58.726Z,8.60
2018-05-01T09:49:58.713Z,9.50
2018-05-01T09:50:58.685Z,12.80
2018-05-01T09:51:58.670Z,9.60
2018-05-01T09:52:58.662Z,10.20
2018-05-01T09:53:58.650Z,9.80
2018-05-01T09:54:58.628Z,9.70
2018-05-01T09:55:58.608Z,7.50
2018-05-01T09:56:58.580Z,10.60
2018-05-01T09:57:58.570Z,10.80
2018-05-01T09:58:58.550Z,8.70
2018-05-01T09:59:58.532Z,10.50
2018-05-01T10:00:58.514Z,8.60
2018-05-01T10:01:58.499Z,10.20
2018-05-01T10:02:58.483Z,9.50
2018-05-01T10:03:58.467Z,9.70
2018-05-01T10:04:58.450Z,11.10
2018-05-01T10:05:58.429Z,9.80
2018-05-01T10:06:58.418Z,10.20
2018-05-01T10:07:58.411Z,8.50
2018-05-01T10:08:58.380Z,8.50
2018-05-01T10:09:58.365Z,7.40
2018-05-01T10:10:58.355Z,7.00
2018-05-01T10:11:58.336Z,6.90
2018-05-01T10:12:58.316Z,8.10
2018-05-01T10:13:58.300Z,8.70
2018-05-01T10:14:58.280Z,7.60
2018-05-01T10:15:58.266Z,9.00
2018-05-01T10:16:58.244Z,7.90
2018-05-01T10:17:58.245Z,10.30
2018-05-01T10:18:58.209Z,6.70
2018-05-01T10:19:58.190Z,6.00
2018-05-01T10:20:58.175Z,7.90
2018-05-01T10:21:58.158Z,7.10
2018-05-01T10:22:58.145Z,8.00
2018-05-01T10:23:58.125Z,10.70
2018-05-01T10:24:58.110Z,9.20
2018-05-01T10:25:58.091Z,8.20
2018-05-01T10:26:58.078Z,6.60
2018-05-01T10:27:58.058Z,9.60
2018-05-01T10:28:58.041Z,7.70
2018-05-01T10:29:58.027Z,9.10
2018-05-01T10:30:58.015Z,7.40
2018-05-01T10:31:57.995Z,6.70
2018-05-01T10:32:57.976Z,7.40
2018-05-01T10:33:57.969Z,7.90
2018-05-01T10:34:57.953Z,6.10
2018-05-01T10:35:57.923Z,9.40
2018-05-01T10:36:57.923Z,9.60
2018-05-01T10:37:57.908Z,10.20
2018-05-01T10:38:57.899Z,5.30
2018-05-01T10:39:57.866Z,8.40
2018-05-01T10:40:57.847Z,5.90
2018-05-01T10:41:57.831Z,7.70
2018-05-01T10:42:57.809Z,7.20
2018-05-01T10:43:57.790Z,5.80
2018-05-01T10:44:57.772Z,12.40
2018-05-01T10:45:57.760Z,7.50
2018-05-01T10:46:57.740Z,7.90
2018-05-01T10:47:57.719Z,8.30
2018-05-01T10:48:57.708Z,6.80
2018-05-01T10:49:57.689Z,9.70
2018-05-01T10:50:57.673Z,7.00
2018-05-01T10:51:57.668Z,9.40
2018-05-01T10:52:57.640Z,8.60
2018-05-01T10:53:57.630Z,9.20
2018-05-01T10:54:57.612Z,6.60
2018-05-01T10:55:57.604Z,7.40
2018-05-01T10:56:57.581Z,6.20
2018-05-01T10:57:57.581Z,7.10
2018-05-01T10:58:57.552Z,6.40
2018-05-01T10:59:57.537Z,9.80
2018-05-01T11:00:57.521Z,7.40
2018-05-01T11:01:57.504Z,6.90
2018-05-01T11:02:57.491Z,6.50
2018-05-01T11:03:57.488Z,8.10
2018-05-01T11:04:57.466Z,10.90
2018-05-01T11:05:57.450Z,6.60
2018-05-01T11:06:57.427Z,6.90
2018-05-01T11:07:57.410Z,7.30
2018-05-01T11:08:57.401Z,8.90
2018-05-01T11:09:57.380Z,8.40
2018-05-01T11:10:57.370Z,8.50
2018-05-01T11:11:57.432Z,7.90
2018-05-01T11:12:57.335Z,8.60
2018-05-01T11:13:57.317Z,8.40
2018-05-01T11:14:57.312Z,8.50
2018-05-01T11:15:57.300Z,6.80
2018-05-01T11:16:57.278Z,9.70
2018-05-01T11:17:57.257Z,6.70
2018-05-01T11:18:57.250Z,8.50
2018-05-01T11:19:57.231Z,8.60
2018-05-01T11:20:57.219Z,7.80
2018-05-01T11:21:57.209Z,6.70
2018-05-01T11:22:57.248Z,6.20
2018-05-01T11:23:57.168Z,9.10
2018-05-01T11:24:57.250Z,9.50
2018-05-01T11:25:57.210Z,10.10
2018-05-01T11:26:57.278Z,8.40
2018-05-01T11:27:57.108Z,9.50
2018-05-01T11:28:57.093Z,8.30
2018-05-01T11:29:57.081Z,11.00
2018-05-01T11:30:57.167Z,8.50
2018-05-01T11:31:57.049Z,9.40
2018-05-01T11:32:57.028Z,8.60
2018-05-01T11:33:57.016Z,8.00
2018-05-01T11:34:57.052Z,6.80
2018-05-01T11:35:56.990Z,8.50
2018-05-01T11:36:57.016Z,8.70
2018-05-01T11:37:56.963Z,10.10
2018-05-01T11:38:57.001Z,7.90
2018-05-01T11:39:56.923Z,7.50
2018-05-01T11:40:56.959Z,11.20
2018-05-01T11:41:56.895Z,7.70
2018-05-01T11:42:56.929Z,7.20
2018-05-01T11:43:56.868Z,8.60
2018-05-01T11:44:56.857Z,7.90
2018-05-01T11:45:56.834Z,7.40
2018-05-01T11:46:56.871Z,7.60
2018-05-01T11:47:56.810Z,9.40
2018-05-01T11:48:56.802Z,7.10
2018-05-01T11:49:56.786Z,8.60
2018-05-01T11:50:56.770Z,7.80
2018-05-01T11:51:56.752Z,10.70
2018-05-01T11:52:56.750Z,9.20
2018-05-01T11:53:56.719Z,7.80
2018-05-01T11:54:56.711Z,7.80
2018-05-01T11:55:56.696Z,7.90
2018-05-01T11:56:56.691Z,8.00
2018-05-01T11:57:56.658Z,8.20
2018-05-01T11:58:56.660Z,7.00
2018-05-01T11:59:56.633Z,7.80
2018-05-01T12:00:56.621Z,7.00
2018-05-01T12:01:56.602Z,8.30
2018-05-01T12:02:56.587Z,9.90
2018-05-01T12:03:56.579Z,7.80
2018-05-01T12:04:56.554Z,7.30
2018-05-01T12:05:56.543Z,7.90
2018-05-01T12:06:56.523Z,9.30
2018-05-01T12:07:56.516Z,9.90
2018-05-01T12:08:56.504Z,8.40
2018-05-01T12:09:56.491Z,8.00
2018-05-01T12:10:56.468Z,8.50
2018-05-01T12:11:56.453Z,9.10
2018-05-01T12:12:56.436Z,7.70
2018-05-01T12:13:56.429Z,15.20
2018-05-01T12:14:56.418Z,6.70
2018-05-01T12:15:56.400Z,8.80
2018-05-01T12:16:56.379Z,7.50
2018-05-01T12:17:56.369Z,8.60
2018-05-01T12:18:56.355Z,8.50
2018-05-01T12:19:56.339Z,8.90
2018-05-01T12:20:56.335Z,7.60
2018-05-01T12:21:56.311Z,9.40
2018-05-01T12:22:56.309Z,7.00
2018-05-01T12:23:56.286Z,6.60
2018-05-01T12:24:56.277Z,11.50
2018-05-01T12:25:56.262Z,8.90
2018-05-01T12:26:56.241Z,6.80
2018-05-01T12:27:56.228Z,7.50
2018-05-01T12:28:56.218Z,6.20
2018-05-01T12:29:56.246Z,5.90
2018-05-01T12:30:56.191Z,8.10
2018-05-01T12:31:56.177Z,6.70
2018-05-01T12:32:56.159Z,8.00
2018-05-01T12:33:56.151Z,7.50
2018-05-01T12:34:56.127Z,6.60
2018-05-01T12:35:56.119Z,9.70
2018-05-01T12:36:56.343Z,11.40
2018-05-01T12:37:56.087Z,7.40
2018-05-01T12:38:56.075Z,7.60
2018-05-01T12:39:56.059Z,6.00
2018-05-01T12:40:56.045Z,11.00
2018-05-01T12:41:56.038Z,8.20
2018-05-01T12:42:56.018Z,6.70
2018-05-01T12:43:56.008Z,9.20
2018-05-01T12:44:55.989Z,8.20
2018-05-01T12:45:55.978Z,7.00
2018-05-01T12:46:55.963Z,8.80
2018-05-01T12:47:55.957Z,8.10
2018-05-01T12:48:55.937Z,6.10
2018-05-01T12:49:55.932Z,6.70
2018-05-01T12:50:55.919Z,6.20
2018-05-01T12:51:55.907Z,5.60
2018-05-01T12:52:55.890Z,5.70
2018-05-01T12:53:55.878Z,7.30
2018-05-01T12:54:55.872Z,8.40
2018-05-01T12:55:55.850Z,7.10
2018-05-01T12:56:55.828Z,5.00
2018-05-01T12:57:55.819Z,6.00
2018-05-01T12:58:55.809Z,5.70
2018-05-01T12:59:55.795Z,7.50
2018-05-01T13:00:55.779Z,5.50
2018-05-01T13:01:55.812Z,6.90
2018-05-01T13:02:55.759Z,6.90
2018-05-01T13:03:55.741Z,6.20
2018-05-01T13:04:55.740Z,6.10
2018-05-01T13:05:55.768Z,6.70
2018-05-01T13:06:55.698Z,6.20
2018-05-01T13:07:55.688Z,8.70
2018-05-01T13:08:55.681Z,7.30
2018-05-01T13:09:55.662Z,6.80
2018-05-01T13:10:55.651Z,8.50
2018-05-01T13:11:55.631Z,8.90